Aktualne dane pomiarowe

Uwaga, wersja testowa! Automatyczne pobieranie danych za pomocą narzędzi lub skryptów to umożliwiających jest zabronione.

Dane meteo z obszaru Polski uzyskane na podstawie depesz SYNOP pobieranych co godzinę z NWS. Najedź myszką na symbol przedstawiony w tabeli, aby uzyskać informacje co do jego znaczenia. Prosimy pamiętać, że to testowa wersja strony, która jeszcze nie jest ukończona. Stworzono również jest krótki FAQ dotyczący korzystania z tej podstrony Anomalie temperatury w chwili obecnej odniesione są do okresu referencyjnego 1951-2016. Okres ten będzie później zmieniony na 1981-2010. Kliknij ikonę aby pobrać plik CSV. Kliknij ikonę aby wygenerować mapę synoptyczną dla danego terminu.

Wybierz Datę:    

        

Racibórz (12540)

Dane terminowe dla wybranej stacji. Kliknij datę, aby otrzymać dane z tego terminu dla wszystkich stacji.

TemperaturaZachmurzenieWiatrCiśnienieOpadyPogoda
 Data t td wb tx tn tg rh  Nt Nl Cl Cm Ch ws wd g1 g2 wx mslp ppp ch 24h 12h t ww ww w1 w2  
2019-08-08 23:00:00 16.8 14.4 15.1--- 8617.0wx-1wx--11014.4 990.0 1.0---------
2019-08-08 22:00:00 16.9 14.9 15.5--- 8814.0wx-wx2wx--21014.0 989.7 1.1---------
2019-08-08 21:00:00 18.0 14.9 15.9--- 8221.0wx-wx2wx--21013.6 989.4 1.0---------
2019-08-08 20:00:00 19.8 14.6 16.3--- 7230.0wx-wx3wx---1013.1 989.0 0.9---------
2019-08-08 19:00:00 21.0 14.4 16.7--- 6645.0wx-wxwx4wx--41012.6 988.6 0.5---------
2019-08-08 18:00:00 22.7 13.2 16.7 26.1 18.9- 5540.0wxwxwxwxwx3wx--31012.2 988.4 0.0- 0.012------
2019-08-08 17:00:00 25.0 12.6 17.4--- 4640.0wxwxwxwxwx4wx--41011.7 988.1 -0.4---------
2019-08-08 16:00:00 25.6 12.8 17.7--- 4535.0wxwxwxwxwx3wx---1011.7 988.1 -0.7---------
2019-08-08 15:00:00 25.8 13.3 18.0--- 4630.0wxwxwxwxwx3wx---1012.0 988.4 -0.4---------
2019-08-08 14:00:00 25.4 13.3 17.9--- 4730.0wxwxwxwxwx3wx--31012.1 988.5 -0.3---------
2019-08-08 13:00:00 24.9 11.8 17.0--- 4430.0wxwxwxwxwx3wx--31012.5 988.8 0.2---------
2019-08-08 12:00:00 24.7 11.3 16.6--- 4340.0wxwxwxwxwx2wx-2521012.5 988.8 0.3- 0.06------
2019-08-08 11:00:00 24.7 11.6 16.8--- 4435.0wxwxwxwxwx3wx--31012.5 988.8 0.4---------
2019-08-08 10:00:00 24.0 12.6 17.0--- 4925.0wxwxwxwx4wx--41012.3 988.6 0.5---------
2019-08-08 09:00:00 23.5 13.4 17.2--- 5330.0wxwxwxwxwx4wx-2541012.3 988.5 0.9---------
2019-08-08 08:00:00 22.2 15.1 17.6--- 6426.0wxwxwxwxwx4wx-2541012.3 988.4 1.4---------
2019-08-08 07:00:00 20.9 15.9 17.5--- 7330.0wxwxwxwx4wx--41012.1 988.1 1.5---------
2019-08-08 06:00:00 18.9 16.5 17.2 22.9 16.4 16 8640.0wxwxwxwx3wx--31011.7 987.6 1.7 16.2 16.012wx-w1- 6.7
2019-08-08 05:00:00 17.2 16.2 16.5--- 9425.0wxwxwxwxwx1wx---1011.2 987.0 1.5---------
2019-08-08 04:00:00 17.0 16.2 16.4--- 9535.0wxwxwxwxwx3wx---1010.9 986.6 1.5---------
2019-08-08 03:00:00 16.8 15.7 16.0--- 9340.0wx-wxwx2wx--21010.2 985.9 1.3---wx-w1--
2019-08-08 02:00:00 17.5 16.2 16.6--- 9230.0wxwxwxwx3wx--31009.7 985.5 1.7---wx-w1--
2019-08-08 01:00:00 18.3 17.3 17.6--- 9428.0wxwxwx1wx--11009.2 985.1 1.0---------
2019-08-08 00:00:00 17.9 17.1 17.3--- 9523.0wxwxwxwx2wx--21008.7 984.6 0.4- 14.06wx-w1w2--
2019-08-07 23:00:00 17.8 16.7 17.0--- 9315.0wxwxwxwx2wx--21007.9 983.8 0.7---wx-w1w2--
2019-08-07 22:00:00 18.0 16.7 17.1--- 926.0wxwxwx3wx--31008.2 984.1 0.9---wx-w1w2--
2019-08-07 21:00:00 19.9 17.9 18.5--- 8812.0wxwxwx5wx---1008.2 984.2 1.1---wx-w1w2--
2019-08-07 20:00:00 19.7 17.8 18.3--- 8920.0wxwxwxwx3wx---1007.0 983.1 0.4---wx-w1--
2019-08-07 19:00:00 20.4 17.6 18.4--- 8412.0wxwxwxwx5wx---1007.1 983.2 0.6---wx-w1--
2019-08-07 18:00:00 22.9 17.6 19.3 30.6 20.0- 729.0wxwxwx7wx121271006.8 983.1 0.3- 0.312wx---
2019-08-07 17:00:00 28.3 14.9 19.8--- 4430.0wxwxwxwx4wx--41005.9 982.7 -0.7---------
2019-08-07 16:00:00 29.5 14.1 19.9--- 3928.0wxwxwxwx4wx--41005.7 982.6 -1.7---------
2019-08-07 15:00:00 30.0 15.3 20.6--- 4122.0wxwxwxwx5wx--51005.9 982.8 -1.9---------
2019-08-07 14:00:00 28.7 14.9 20.0--- 4330.0wxwxwxwx7wx---1006.6 983.4 -1.3---------
2019-08-07 13:00:00 28.3 15.9 20.3--- 4740.0wxwxwxwx6wx--61007.6 984.3 -1.0---------
2019-08-07 12:00:00 28.3 15.2 20.0--- 4527.0wxwxwxwx8wx-1281008.0 984.7 -0.8- 0.06------
2019-08-07 11:00:00 27.8 15.8 20.1--- 4835.0wxwxwxwx6wx--61008.0 984.7 -0.7---------
2019-08-07 10:00:00 25.4 17.8 20.3--- 6328.0wxwxwxwx2wx--21008.8 985.3 -0.1---------
2019-08-07 09:00:00 25.0 17.0 19.7--- 6129.0wxwxwxwx2wx---1009.1 985.5 0.1---------
2019-08-07 08:00:00 23.4 16.9 19.0--- 6740.0wx-wx1wx--11009.1 985.4 -0.1---------
2019-08-07 07:00:00 22.0 17.1 18.6--- 7428.0wx-wxwx1wx--11009.2 985.4 -0.6---------
2019-08-07 06:00:00 20.0 17.2 18.0 24.9 17.4 16 8423.0wxwxwxwxwx1wx--11009.4 985.4 -0.4- 0.012----- 9.5
2019-08-07 05:00:00 19.3 17.1 17.7--- 8720.0wx-wxwx1wx--11009.5 985.5 -0.5---------
2019-08-07 04:00:00 18.3 16.8 17.2--- 9117.0wxwxwxwxwx1wx---1010.1 986.0 -0.1---------
2019-08-07 03:00:00 18.3 16.3 16.9--- 8822.0wxwxwxwx2wx--21009.9 985.8 -0.4---------
2019-08-07 02:00:00 17.8 15.8 16.4--- 8824.0wx-wx1wx--11010.2 986.0 -0.5---------
2019-08-07 01:00:00 17.8 15.8 16.4--- 8830.0wx-wx1wx--11010.3 986.1 -0.5---------
2019-08-07 00:00:00 17.6 15.4 16.0--- 8727.0wx-3wx-1531010.4 986.2 -0.3- 0.06wx-w1--
1.9 ms

 

Print Friendly, PDF & Email